createdAt,value
2023-03-12T00:00:10.514Z,3.1
2023-03-12T00:01:24.799Z,3
2023-03-12T00:02:39.203Z,3.1
2023-03-12T00:03:53.527Z,2.4
2023-03-12T00:05:07.804Z,2.7
2023-03-12T00:06:22.090Z,2.5
2023-03-12T00:07:36.500Z,2.2
2023-03-12T00:08:50.826Z,2.5
2023-03-12T00:10:05.100Z,2.8
2023-03-12T00:11:19.387Z,2.7
2023-03-12T00:12:33.788Z,2.5
2023-03-12T00:13:48.114Z,3.2
2023-03-12T00:15:02.395Z,3
2023-03-12T00:16:16.676Z,2.7
2023-03-12T00:17:31.083Z,3
2023-03-12T00:18:45.409Z,2.5
2023-03-12T00:19:59.701Z,3.1
2023-03-12T00:21:14.034Z,2.5
2023-03-12T00:22:28.445Z,2.6
2023-03-12T00:23:42.785Z,2.7
2023-03-12T00:24:56.129Z,3.1
2023-03-12T00:26:10.414Z,2.3
2023-03-12T00:27:24.829Z,3.1
2023-03-12T00:29:53.421Z,2
2023-03-12T00:31:07.000Z,2.5
2023-03-12T00:32:22.112Z,2.8
2023-03-12T00:33:36.446Z,3.2
2023-03-12T00:34:50.726Z,2.4
2023-03-12T00:36:05.000Z,3
2023-03-12T00:37:19.415Z,2.5
2023-03-12T00:38:33.740Z,3
2023-03-12T00:39:48.011Z,2.3
2023-03-12T00:41:02.298Z,2.3
2023-03-12T00:42:16.709Z,2.9
2023-03-12T00:43:31.016Z,2.4
2023-03-12T00:44:45.307Z,1.9
2023-03-12T00:45:59.594Z,2.7
2023-03-12T00:47:13.996Z,2.7
2023-03-12T00:48:28.329Z,2.6
2023-03-12T00:49:42.610Z,2.1
2023-03-12T00:50:56.882Z,2.5
2023-03-12T00:52:11.290Z,2.2
2023-03-12T00:53:25.622Z,2.7
2023-03-12T00:54:39.887Z,2.4
2023-03-12T00:55:54.231Z,3.1
2023-03-12T00:57:08.651Z,2
2023-03-12T00:58:22.985Z,2.1
2023-03-12T00:59:36.332Z,1.7
2023-03-12T01:00:50.604Z,2.1
2023-03-12T01:02:05.027Z,2.4
2023-03-12T01:03:19.342Z,2.5
2023-03-12T01:04:33.623Z,2.2
2023-03-12T01:05:47.914Z,2.6
2023-03-12T01:07:02.318Z,2.2
2023-03-12T01:08:16.639Z,2
2023-03-12T01:09:30.916Z,2.3
2023-03-12T01:10:45.209Z,1.6
2023-03-12T01:11:59.609Z,1.9
2023-03-12T01:13:13.941Z,2.3
2023-03-12T01:14:28.207Z,1.7
2023-03-12T01:15:42.488Z,2.1
2023-03-12T01:16:56.908Z,1.9
2023-03-12T01:18:11.230Z,2
2023-03-12T01:19:25.520Z,2
2023-03-12T01:20:39.784Z,1.8
2023-03-12T01:21:54.207Z,2.5
2023-03-12T01:23:08.515Z,1.9
2023-03-12T01:24:22.802Z,1.7
2023-03-12T01:25:37.079Z,1.9
2023-03-12T01:26:51.501Z,2.2
2023-03-12T01:28:05.814Z,1.4
2023-03-12T01:29:20.098Z,2.1
2023-03-12T01:30:34.440Z,2
2023-03-12T01:31:48.855Z,1.7
2023-03-12T01:33:03.178Z,2
2023-03-12T01:34:16.537Z,1.9
2023-03-12T01:35:30.820Z,2.1
2023-03-12T01:36:45.226Z,2
2023-03-12T01:37:59.551Z,1.8
2023-03-12T01:39:13.833Z,2.2
2023-03-12T01:40:28.106Z,1.7
2023-03-12T01:41:42.510Z,2
2023-03-12T01:42:56.849Z,1.9
2023-03-12T01:44:11.127Z,2.3
2023-03-12T01:45:25.398Z,1.5
2023-03-12T01:46:39.805Z,2
2023-03-12T01:47:54.145Z,1.6
2023-03-12T01:49:08.414Z,2.3
2023-03-12T01:50:22.702Z,2.7
2023-03-12T01:51:37.112Z,1.8
2023-03-12T01:52:51.420Z,2.8
2023-03-12T01:54:05.703Z,2
2023-03-12T01:55:19.996Z,1.8
2023-03-12T01:56:34.395Z,2.3
2023-03-12T01:57:48.716Z,1.5
2023-03-12T01:59:02.994Z,1.9
2023-03-12T02:01:31.690Z,1.7
2023-03-12T02:02:46.021Z,2
2023-03-12T02:04:00.289Z,1.7
2023-03-12T02:05:14.645Z,2.4
2023-03-12T02:06:29.036Z,1.7
2023-03-12T02:07:43.393Z,1.7
2023-03-12T02:08:56.733Z,1.7
2023-03-12T02:10:11.025Z,2.2
2023-03-12T02:11:25.434Z,1.8
2023-03-12T02:12:39.745Z,2.1
2023-03-12T02:13:54.038Z,1.8
2023-03-12T02:15:08.316Z,2.1
2023-03-12T02:16:22.720Z,1.9
2023-03-12T02:17:37.035Z,1.8
2023-03-12T02:18:51.314Z,1.9
2023-03-12T02:20:05.614Z,1.4
2023-03-12T02:21:20.015Z,1.9
2023-03-12T02:22:34.338Z,2.1
2023-03-12T02:23:48.612Z,1.5
2023-03-12T02:25:02.903Z,2.3
2023-03-12T02:26:17.298Z,1.7
2023-03-12T02:28:45.921Z,2.4
2023-03-12T02:30:00.186Z,1.8
2023-03-12T02:31:14.609Z,2.3
2023-03-12T02:32:28.933Z,2.3
2023-03-12T02:33:43.201Z,2
2023-03-12T02:34:57.478Z,2
2023-03-12T02:36:11.898Z,2.1
2023-03-12T02:37:26.228Z,2.2
2023-03-12T02:38:40.498Z,1.9
2023-03-12T02:39:54.838Z,2
2023-03-12T02:41:09.249Z,2.1
2023-03-12T02:42:23.592Z,1.7
2023-03-12T02:44:51.215Z,1.8
2023-03-12T02:46:05.627Z,1.8
2023-03-12T02:47:19.940Z,2.1
2023-03-12T02:48:34.233Z,2
2023-03-12T02:49:48.505Z,2.1
2023-03-12T02:52:17.247Z,1.6
2023-03-12T02:53:31.526Z,2.4
2023-03-12T02:54:45.806Z,1.8
2023-03-12T02:56:00.207Z,2.1
2023-03-12T02:57:14.536Z,2
2023-03-12T02:58:28.819Z,1.9
2023-03-12T02:59:43.101Z,1.9
2023-03-12T03:00:57.513Z,1.7
2023-03-12T03:02:11.822Z,2.4
2023-03-12T03:03:26.112Z,1.7
2023-03-12T03:04:40.399Z,1.9
2023-03-12T03:05:54.793Z,2.1
2023-03-12T03:07:09.135Z,1.8
2023-03-12T03:08:23.407Z,1.7
2023-03-12T03:09:37.680Z,1.7
2023-03-12T03:12:06.421Z,2.1
2023-03-12T03:13:20.709Z,2.3
2023-03-12T03:14:35.040Z,1.8
2023-03-12T03:15:49.451Z,1.8
2023-03-12T03:17:03.795Z,2
2023-03-12T03:19:31.425Z,2
2023-03-12T03:20:45.842Z,1.8
2023-03-12T03:22:00.165Z,2.1
2023-03-12T03:23:14.439Z,2.5
2023-03-12T03:24:28.728Z,1.9
2023-03-12T03:25:43.120Z,2.4
2023-03-12T03:26:57.448Z,2.2
2023-03-12T03:28:11.743Z,2
2023-03-12T03:29:26.014Z,2.2
2023-03-12T03:30:40.415Z,2
2023-03-12T03:31:54.745Z,2
2023-03-12T03:33:09.022Z,2
2023-03-12T03:34:23.312Z,2.3
2023-03-12T03:35:37.723Z,1.9
2023-03-12T03:36:52.046Z,1.9
2023-03-12T03:38:06.318Z,2.1
2023-03-12T03:39:20.604Z,2.2
2023-03-12T03:40:35.016Z,2
2023-03-12T03:41:49.324Z,1.9
2023-03-12T03:43:03.621Z,2.2
2023-03-12T03:44:17.892Z,2
2023-03-12T03:45:32.301Z,1.8
2023-03-12T03:46:46.637Z,1.7
2023-03-12T03:48:00.919Z,1.7
2023-03-12T03:49:15.241Z,2.5
2023-03-12T03:50:29.663Z,1.7
2023-03-12T03:51:44.002Z,2
2023-03-12T03:52:57.340Z,2.4
2023-03-12T03:54:11.636Z,1.8
2023-03-12T03:55:26.035Z,1.8
2023-03-12T03:56:40.355Z,1.6
2023-03-12T03:57:54.649Z,2.6
2023-03-12T03:59:08.919Z,1.6
2023-03-12T04:00:23.332Z,1.8
2023-03-12T04:01:37.652Z,1.4
2023-03-12T04:02:51.945Z,2.1
2023-03-12T04:04:06.224Z,2.4
2023-03-12T04:05:20.625Z,2
2023-03-12T04:06:34.944Z,2.2
2023-03-12T04:07:49.236Z,2.2
2023-03-12T04:09:03.519Z,1.7
2023-03-12T04:10:17.914Z,1.7
2023-03-12T04:11:32.238Z,2.2
2023-03-12T04:12:46.524Z,1.8
2023-03-12T04:14:00.815Z,1.8
2023-03-12T04:15:15.215Z,2.3
2023-03-12T04:16:29.544Z,1.6
2023-03-12T04:17:43.816Z,1.8
2023-03-12T04:18:58.107Z,2.5
2023-03-12T04:20:12.510Z,2.4
2023-03-12T04:21:26.824Z,2.6
2023-03-12T04:22:41.108Z,2
2023-03-12T04:23:55.460Z,1.9
2023-03-12T04:25:09.854Z,1.8
2023-03-12T04:26:24.201Z,2.1
2023-03-12T04:27:37.541Z,1.9
2023-03-12T04:28:51.821Z,2
2023-03-12T04:30:06.229Z,1.6
2023-03-12T04:31:20.566Z,1.8
2023-03-12T04:32:34.837Z,1.9
2023-03-12T04:33:49.128Z,1.9
2023-03-12T04:35:03.539Z,1.8
2023-03-12T04:36:17.863Z,1.7
2023-03-12T04:37:32.138Z,1.9
2023-03-12T04:40:00.817Z,2.1
2023-03-12T04:41:15.152Z,1.7
2023-03-12T04:42:29.428Z,1.5
2023-03-12T04:43:43.708Z,2
2023-03-12T04:44:58.119Z,1.7
2023-03-12T04:46:12.450Z,2
2023-03-12T04:47:26.718Z,1.9
2023-03-12T04:48:41.020Z,1.7
2023-03-12T04:49:55.422Z,1.8
2023-03-12T04:51:09.737Z,1.6
2023-03-12T04:52:24.017Z,1.9
2023-03-12T04:53:38.297Z,1.7
2023-03-12T04:54:52.722Z,2.1
2023-03-12T04:56:07.033Z,1.7
2023-03-12T04:57:21.319Z,1.6
2023-03-12T04:58:35.656Z,1.9
2023-03-12T04:59:50.058Z,1.1
2023-03-12T05:01:04.412Z,1.5
2023-03-12T05:02:17.754Z,1.6
2023-03-12T05:03:32.039Z,2.2
2023-03-12T05:04:46.451Z,1.6
2023-03-12T05:06:00.774Z,1.1
2023-03-12T05:07:15.051Z,1.6
2023-03-12T05:08:29.285Z,1.6
2023-03-12T05:09:43.587Z,1.5
2023-03-12T05:10:57.815Z,1.4
2023-03-12T05:12:12.052Z,1.4
2023-03-12T05:13:26.269Z,1.6
2023-03-12T05:14:40.554Z,1.6
2023-03-12T05:15:54.971Z,1.5
2023-03-12T05:17:09.282Z,1.9
2023-03-12T05:18:23.566Z,1.4
2023-03-12T05:19:37.801Z,1.7
2023-03-12T05:20:52.085Z,1.4
2023-03-12T05:22:06.493Z,1.4
2023-03-12T05:23:20.722Z,1.7
2023-03-12T05:24:34.961Z,1.5
2023-03-12T05:25:49.185Z,1.3
2023-03-12T05:27:03.416Z,1.5
2023-03-12T05:28:17.709Z,1.3
2023-03-12T05:29:31.945Z,1.6
2023-03-12T05:30:46.187Z,1.5
2023-03-12T05:32:00.403Z,1.3
2023-03-12T05:33:14.688Z,1.8
2023-03-12T05:34:29.000Z,1.6
2023-03-12T05:35:43.281Z,1.8
2023-03-12T05:36:56.573Z,1.4
2023-03-12T05:38:10.813Z,1.5
2023-03-12T05:39:25.095Z,1.7
2023-03-12T05:40:39.350Z,1.6
2023-03-12T05:41:53.570Z,1.3
2023-03-12T05:43:07.795Z,1.2
2023-03-12T05:44:22.018Z,1.8
2023-03-12T05:45:36.331Z,1.5
2023-03-12T05:46:50.568Z,1.4
2023-03-12T05:48:04.804Z,1.5
2023-03-12T05:49:19.023Z,1.3
2023-03-12T05:50:33.249Z,1.5
2023-03-12T05:51:47.544Z,1.9
2023-03-12T05:53:01.784Z,1.3
2023-03-12T05:54:16.019Z,1.8
2023-03-12T05:55:30.239Z,1.4
2023-03-12T05:56:44.474Z,1.6
2023-03-12T05:57:58.773Z,1.5
2023-03-12T05:59:13.011Z,1.5
2023-03-12T06:00:27.243Z,1.5
2023-03-12T06:01:41.469Z,1.6
2023-03-12T06:02:55.699Z,1.8
2023-03-12T06:04:10.003Z,1.6
2023-03-12T06:06:38.461Z,1.2
2023-03-12T06:07:52.749Z,1.2
2023-03-12T06:09:07.037Z,1.2
2023-03-12T06:10:21.350Z,1.3
2023-03-12T06:11:35.624Z,1.6
2023-03-12T06:12:48.967Z,1.8
2023-03-12T06:14:02.321Z,1.4
2023-03-12T06:15:16.603Z,1.4
2023-03-12T06:16:30.887Z,1.3
2023-03-12T06:18:58.478Z,1.2
2023-03-12T06:20:12.726Z,1.1
2023-03-12T06:21:26.940Z,1.2
2023-03-12T06:22:41.178Z,1.4
2023-03-12T06:23:55.403Z,1.2
2023-03-12T06:25:09.690Z,1.3
2023-03-12T06:26:23.933Z,1.4
2023-03-12T06:27:38.170Z,1.2
2023-03-12T06:28:52.404Z,1.2
2023-03-12T06:30:06.633Z,1.4
2023-03-12T06:31:20.920Z,1.1
2023-03-12T06:32:35.175Z,1.2
2023-03-12T06:33:49.391Z,1.6
2023-03-12T06:35:03.621Z,0.8
2023-03-12T06:36:17.847Z,1.8
2023-03-12T06:37:32.142Z,1.1
2023-03-12T06:38:46.380Z,1.5
2023-03-12T06:41:14.849Z,1.1
2023-03-12T06:42:29.061Z,1.4
2023-03-12T06:43:43.357Z,1.1
2023-03-12T06:44:57.605Z,1.6
2023-03-12T06:46:11.831Z,1.4
2023-03-12T06:47:26.064Z,1.2
2023-03-12T06:48:40.343Z,1.2
2023-03-12T06:49:54.654Z,2.1
2023-03-12T06:51:08.922Z,1.2
2023-03-12T06:52:23.289Z,1
2023-03-12T06:53:37.517Z,1.1
2023-03-12T06:54:51.748Z,1.2
2023-03-12T06:56:06.051Z,1.2
2023-03-12T06:57:20.289Z,1.7
2023-03-12T06:58:34.642Z,0.8
2023-03-12T06:59:48.880Z,1.4
2023-03-12T07:01:03.099Z,1.5
2023-03-12T07:02:17.398Z,1
2023-03-12T07:03:31.633Z,1.3
2023-03-12T07:04:45.872Z,1.3
2023-03-12T07:06:00.097Z,1.5
2023-03-12T07:07:14.322Z,1.6
2023-03-12T07:08:28.616Z,1.4
2023-03-12T07:09:42.861Z,1.4
2023-03-12T07:10:57.090Z,1.2
2023-03-12T07:12:11.315Z,1.7
2023-03-12T07:13:25.550Z,1.2
2023-03-12T07:14:39.848Z,0.9
2023-03-12T07:17:08.315Z,1.3
2023-03-12T07:18:22.542Z,1.2
2023-03-12T07:19:36.770Z,1.1
2023-03-12T07:20:51.057Z,1
2023-03-12T07:22:05.296Z,1.5
2023-03-12T07:23:19.680Z,0.8
2023-03-12T07:24:33.907Z,1.1
2023-03-12T07:25:48.248Z,1
2023-03-12T07:27:02.547Z,1.1
2023-03-12T07:28:16.790Z,1
2023-03-12T07:29:31.017Z,1.1
2023-03-12T07:30:45.248Z,0.9
2023-03-12T07:31:59.471Z,1.5
2023-03-12T07:33:13.771Z,1.2
2023-03-12T07:35:42.251Z,1.2
2023-03-12T07:36:56.466Z,1.2
2023-03-12T07:38:10.693Z,1.1
2023-03-12T07:39:24.989Z,0.9
2023-03-12T07:40:39.244Z,1.3
2023-03-12T07:43:07.699Z,1.2
2023-03-12T07:44:21.920Z,1.6
2023-03-12T07:45:36.208Z,1.2
2023-03-12T07:46:50.457Z,1.3
2023-03-12T07:49:18.916Z,0.8
2023-03-12T07:50:33.146Z,1.2
2023-03-12T07:51:47.432Z,1.2
2023-03-12T07:53:01.691Z,1.7
2023-03-12T07:54:15.913Z,0.6
2023-03-12T07:55:30.140Z,1.1
2023-03-12T07:56:44.363Z,1
2023-03-12T07:57:58.653Z,1.3
2023-03-12T07:59:12.908Z,1.4
2023-03-12T08:00:27.267Z,1
2023-03-12T08:01:41.506Z,0.9
2023-03-12T08:02:55.724Z,1.1
2023-03-12T08:04:10.018Z,1.1
2023-03-12T08:05:24.269Z,1.2
2023-03-12T08:06:38.498Z,1.1
2023-03-12T08:07:52.714Z,0.9
2023-03-12T08:09:06.942Z,1.3
2023-03-12T08:10:21.256Z,1.1
2023-03-12T08:12:49.709Z,1
2023-03-12T08:14:03.935Z,1.4
2023-03-12T08:16:32.480Z,0.9
2023-03-12T08:17:46.714Z,1.1
2023-03-12T08:19:00.950Z,0.9
2023-03-12T08:20:15.192Z,0.9
2023-03-12T08:21:29.397Z,1.4
2023-03-12T08:22:43.703Z,1.4
2023-03-12T08:23:57.944Z,0.9
2023-03-12T08:25:12.300Z,1.1
2023-03-12T08:26:26.530Z,1.2
2023-03-12T08:27:40.757Z,0.8
2023-03-12T08:30:09.297Z,0.8
2023-03-12T08:31:23.529Z,1
2023-03-12T08:32:37.750Z,1.3
2023-03-12T08:33:51.985Z,1
2023-03-12T08:35:06.282Z,0.9
2023-03-12T08:36:20.529Z,1.1
2023-03-12T08:37:34.884Z,1.6
2023-03-12T08:40:03.321Z,0.8
2023-03-12T08:41:17.630Z,1.2
2023-03-12T08:42:31.878Z,1.4
2023-03-12T08:43:46.091Z,0.9
2023-03-12T08:45:00.333Z,1.2
2023-03-12T08:46:14.547Z,1.5
2023-03-12T08:47:28.848Z,1.3
2023-03-12T08:48:43.084Z,1.3
2023-03-12T08:49:57.330Z,1.5
2023-03-12T08:51:11.543Z,1.5
2023-03-12T08:52:25.770Z,1.1
2023-03-12T08:53:40.079Z,1.3
2023-03-12T08:54:54.312Z,1.6
2023-03-12T08:56:08.544Z,1.3
2023-03-12T08:57:22.762Z,1.3
2023-03-12T08:58:37.000Z,1.2
2023-03-12T08:59:51.301Z,1.3
2023-03-12T09:01:05.536Z,1.7
2023-03-12T09:02:19.916Z,1.2
2023-03-12T09:03:34.141Z,1.5
2023-03-12T09:04:48.513Z,1.5
2023-03-12T09:06:02.795Z,1.4
2023-03-12T09:07:17.041Z,1.7
2023-03-12T09:09:45.491Z,1.6
2023-03-12T09:10:59.718Z,1.7
2023-03-12T09:12:14.022Z,1.8
2023-03-12T09:13:28.270Z,1.6
2023-03-12T09:14:42.497Z,1.2
2023-03-12T09:15:56.721Z,1.9
2023-03-12T09:17:11.068Z,1.4
2023-03-12T09:18:25.379Z,1.5
2023-03-12T09:19:39.613Z,1.8
2023-03-12T09:20:53.844Z,1.2
2023-03-12T09:22:08.067Z,1.6
2023-03-12T09:24:36.595Z,1.6
2023-03-12T09:25:50.832Z,1.8
2023-03-12T09:27:05.054Z,1.8
2023-03-12T09:28:19.292Z,1.5
2023-03-12T09:29:33.518Z,1.9
2023-03-12T09:30:47.820Z,1.9
2023-03-12T09:32:02.049Z,1.6
2023-03-12T09:33:16.277Z,1.4
2023-03-12T09:34:30.655Z,1.6
2023-03-12T09:35:44.876Z,1.7
2023-03-12T09:36:59.172Z,2
2023-03-12T09:38:13.426Z,1.6
2023-03-12T09:39:27.642Z,1.5
2023-03-12T09:41:56.107Z,1.5
2023-03-12T09:43:10.399Z,1.9
2023-03-12T09:44:24.657Z,1.3
2023-03-12T09:45:38.866Z,1.4
2023-03-12T09:46:53.106Z,1.6
2023-03-12T09:48:07.325Z,1.9
2023-03-12T09:49:21.623Z,1.7
2023-03-12T09:50:35.881Z,1.5
2023-03-12T09:51:50.263Z,1.6
2023-03-12T09:53:04.461Z,1.3
2023-03-12T09:54:18.689Z,1.6
2023-03-12T09:55:32.987Z,1.7
2023-03-12T09:56:47.246Z,1.8
2023-03-12T09:58:01.470Z,1.9
2023-03-12T09:59:15.803Z,1.6
2023-03-12T10:00:30.037Z,1.4
2023-03-12T10:01:44.349Z,2.1
2023-03-12T10:04:12.817Z,1.5
2023-03-12T10:05:27.029Z,1.3
2023-03-12T10:07:55.558Z,1.6
2023-03-12T10:09:09.813Z,2.1
2023-03-12T10:10:24.033Z,1.7
2023-03-12T10:11:38.391Z,1.6
2023-03-12T10:12:52.622Z,1.9
2023-03-12T10:14:06.937Z,1.6
2023-03-12T10:15:21.159Z,1.8
2023-03-12T10:16:35.391Z,1.7
2023-03-12T10:17:49.629Z,1.5
2023-03-12T10:20:18.282Z,1.9
2023-03-12T10:21:32.510Z,2
2023-03-12T10:24:00.963Z,2.1
2023-03-12T10:26:29.494Z,2
2023-03-12T10:27:43.746Z,1.7
2023-03-12T10:28:57.969Z,2.2
2023-03-12T10:30:12.192Z,2.1
2023-03-12T10:31:26.425Z,2
2023-03-12T10:33:54.951Z,1.6
2023-03-12T10:35:09.194Z,1.9
2023-03-12T10:36:23.538Z,1.9
2023-03-12T10:37:37.761Z,1.8
2023-03-12T10:38:52.054Z,1.7
2023-03-12T10:40:06.294Z,2
2023-03-12T10:42:34.763Z,1.8
2023-03-12T10:43:48.985Z,2.3
2023-03-12T10:45:03.280Z,1.8
2023-03-12T10:46:17.524Z,2.4
2023-03-12T10:47:31.756Z,2.1
2023-03-12T10:48:46.127Z,1.6
2023-03-12T10:50:00.355Z,2.2
2023-03-12T10:51:14.648Z,2.2
2023-03-12T10:52:28.889Z,2.3
2023-03-12T10:53:43.126Z,2.4
2023-03-12T10:56:11.580Z,2.1
2023-03-12T10:57:25.883Z,2.3
2023-03-12T10:58:40.108Z,2.1
2023-03-12T10:59:54.340Z,2.1
2023-03-12T11:01:08.574Z,2.1
2023-03-12T11:02:22.785Z,2.5
2023-03-12T11:03:37.101Z,2.7
2023-03-12T11:04:51.326Z,2.2
2023-03-12T11:06:05.558Z,2.9
2023-03-12T11:08:34.015Z,2.5
2023-03-12T11:11:02.554Z,3.3
2023-03-12T11:13:31.006Z,2.4
2023-03-12T11:14:45.237Z,2.4
2023-03-12T11:15:59.528Z,2.3
2023-03-12T11:17:13.779Z,2.2
2023-03-12T11:18:28.153Z,2.6
2023-03-12T11:19:42.372Z,2.2
2023-03-12T11:20:56.730Z,2.1
2023-03-12T11:22:11.031Z,2.3
2023-03-12T11:23:25.265Z,2.3
2023-03-12T11:24:39.485Z,2.2
2023-03-12T11:25:53.719Z,2.4
2023-03-12T11:27:07.936Z,2.2
2023-03-12T11:28:22.239Z,2.4
2023-03-12T11:29:36.480Z,2.4
2023-03-12T11:30:50.715Z,1.9
2023-03-12T11:32:04.934Z,2.1
2023-03-12T11:33:19.169Z,2.3
2023-03-12T11:34:33.460Z,2.2
2023-03-12T11:35:47.702Z,1.9
2023-03-12T11:38:16.161Z,2
2023-03-12T11:39:30.397Z,1.9
2023-03-12T11:40:44.696Z,2
2023-03-12T11:41:58.925Z,2.5
2023-03-12T11:43:13.152Z,2.6
2023-03-12T11:44:27.389Z,2.6
2023-03-12T11:45:41.757Z,2
2023-03-12T11:46:56.044Z,2.6
2023-03-12T11:48:10.289Z,2.7
2023-03-12T11:49:24.525Z,3.3
2023-03-12T11:50:38.742Z,2.5
2023-03-12T11:51:52.967Z,2.8
2023-03-12T11:53:07.276Z,2.3
2023-03-12T11:54:21.511Z,2.5
2023-03-12T11:55:35.884Z,2.3
2023-03-12T11:56:50.121Z,3.2
2023-03-12T11:58:04.458Z,2.5
2023-03-12T11:59:18.753Z,2.4
2023-03-12T12:00:33.009Z,2.9
2023-03-12T12:01:47.225Z,2.6
2023-03-12T12:03:01.447Z,2.5
2023-03-12T12:04:15.675Z,2.9
2023-03-12T12:05:29.982Z,2.8
2023-03-12T12:06:44.228Z,2.9
2023-03-12T12:07:58.447Z,2.9
2023-03-12T12:09:12.675Z,2.9
2023-03-12T12:11:41.357Z,3.1
2023-03-12T12:12:55.597Z,2.6
2023-03-12T12:14:09.810Z,2.7
2023-03-12T12:15:24.041Z,2.9
2023-03-12T12:16:38.272Z,3
2023-03-12T12:17:52.577Z,3.4
2023-03-12T12:19:06.807Z,2.9
2023-03-12T12:20:21.159Z,2.5
2023-03-12T12:21:35.393Z,2.7
2023-03-12T12:22:49.763Z,3.1
2023-03-12T12:24:04.054Z,2.7
2023-03-12T12:25:18.302Z,3.2
2023-03-12T12:26:32.523Z,2.8
2023-03-12T12:27:46.754Z,2.8
2023-03-12T12:29:00.982Z,3.1
2023-03-12T12:30:15.281Z,2.7
2023-03-12T12:31:29.526Z,2.7
2023-03-12T12:32:43.752Z,3.4
2023-03-12T12:33:57.983Z,3.2
2023-03-12T12:35:12.341Z,3.3
2023-03-12T12:36:26.637Z,3.1
2023-03-12T12:37:40.884Z,2.9
2023-03-12T12:38:55.104Z,2.6
2023-03-12T12:40:09.462Z,3.2
2023-03-12T12:41:23.678Z,2.5
2023-03-12T12:42:37.998Z,2.7
2023-03-12T12:43:52.233Z,3.1
2023-03-12T12:45:06.446Z,3.6
2023-03-12T12:46:20.680Z,3.4
2023-03-12T12:48:49.214Z,3.2
2023-03-12T12:50:03.452Z,2.9
2023-03-12T12:51:17.682Z,2.9
2023-03-12T12:52:31.898Z,3.1
2023-03-12T12:53:46.145Z,3.6
2023-03-12T12:55:00.454Z,3.5
2023-03-12T12:56:14.667Z,3.8
2023-03-12T12:57:29.026Z,2.9
2023-03-12T12:58:43.245Z,3.3
2023-03-12T12:59:57.470Z,3.4
2023-03-12T13:01:11.780Z,3.6
2023-03-12T13:02:26.022Z,3.5
2023-03-12T13:03:40.246Z,3.1
2023-03-12T13:04:54.471Z,3
2023-03-12T13:06:08.703Z,3.3
2023-03-12T13:07:23.002Z,4.7
2023-03-12T13:08:37.244Z,3.3
2023-03-12T13:09:51.467Z,3.5
2023-03-12T13:11:05.697Z,3.7
2023-03-12T13:12:19.908Z,4.4
2023-03-12T13:13:34.219Z,4.6
2023-03-12T13:14:48.458Z,3.7
2023-03-12T13:17:16.909Z,3.9
2023-03-12T13:18:31.147Z,4
2023-03-12T13:19:45.435Z,4.3
2023-03-12T13:20:59.686Z,3.8
2023-03-12T13:23:28.129Z,3.5
2023-03-12T13:24:42.493Z,4
2023-03-12T13:25:56.795Z,3.8
2023-03-12T13:28:25.274Z,4.4
2023-03-12T13:29:39.648Z,3.7
2023-03-12T13:30:53.860Z,4.7
2023-03-12T13:32:08.165Z,3.4
2023-03-12T13:33:22.401Z,3.7
2023-03-12T13:34:36.638Z,3.2
2023-03-12T13:35:50.857Z,4.4
2023-03-12T13:37:05.091Z,3.9
2023-03-12T13:38:19.386Z,4.5
2023-03-12T13:39:33.628Z,4.2
2023-03-12T13:40:47.849Z,4.3
2023-03-12T13:42:02.202Z,3.9
2023-03-12T13:44:30.721Z,4.5
2023-03-12T13:45:44.970Z,6
2023-03-12T13:46:59.196Z,5
2023-03-12T13:48:13.428Z,4.3
2023-03-12T13:49:27.645Z,3.8
2023-03-12T13:50:41.947Z,3.8
2023-03-12T13:51:56.197Z,4.3
2023-03-12T13:53:10.426Z,4.5
2023-03-12T13:54:24.652Z,3.9
2023-03-12T13:55:38.882Z,4.5
2023-03-12T13:56:53.178Z,4.8
2023-03-12T13:58:07.420Z,5.1
2023-03-12T13:59:21.771Z,4.3
2023-03-12T14:00:35.987Z,4.4
2023-03-12T14:01:50.216Z,3.8
2023-03-12T14:03:04.523Z,4.4
2023-03-12T14:04:18.757Z,4.3
2023-03-12T14:05:32.976Z,4.8
2023-03-12T14:06:47.204Z,4.2
2023-03-12T14:08:01.433Z,4.5
2023-03-12T14:09:15.733Z,4.7
2023-03-12T14:10:29.978Z,4.2
2023-03-12T14:11:44.203Z,5.2
2023-03-12T14:12:58.436Z,4.2
2023-03-12T14:14:12.648Z,3.9
2023-03-12T14:17:55.429Z,3.7
2023-03-12T14:19:09.777Z,5.4
2023-03-12T14:20:24.006Z,4.7
2023-03-12T14:24:06.766Z,4.9
2023-03-12T14:25:20.999Z,4.1
2023-03-12T14:27:49.515Z,4.1
2023-03-12T14:29:03.772Z,4.3
2023-03-12T14:30:17.986Z,4.8
2023-03-12T14:31:32.350Z,4.5
2023-03-12T14:32:46.585Z,5.1
2023-03-12T14:34:00.882Z,5.8
2023-03-12T14:36:29.351Z,4.2
2023-03-12T14:37:43.575Z,4.2
2023-03-12T14:38:57.810Z,4.8
2023-03-12T14:40:12.104Z,4.3
2023-03-12T14:41:26.354Z,5.3
2023-03-12T14:42:40.584Z,4.1
2023-03-12T14:43:54.801Z,5.4
2023-03-12T14:45:09.018Z,4.3
2023-03-12T14:46:23.337Z,3.5
2023-03-12T14:47:37.565Z,4.9
2023-03-12T14:48:51.910Z,4.1
2023-03-12T14:51:20.373Z,4.2
2023-03-12T14:52:34.667Z,4.7
2023-03-12T14:55:03.139Z,3.7
2023-03-12T14:56:17.508Z,4.1
2023-03-12T14:57:31.743Z,4.3
2023-03-12T14:58:46.038Z,4
2023-03-12T15:00:00.284Z,3.6
2023-03-12T15:01:14.512Z,3.4
2023-03-12T15:02:28.722Z,4.4
2023-03-12T15:03:42.949Z,5
2023-03-12T15:04:57.257Z,4.3
2023-03-12T15:06:11.502Z,3.9
2023-03-12T15:07:25.721Z,3.9
2023-03-12T15:08:40.079Z,3.4
2023-03-12T15:11:08.595Z,5.1
2023-03-12T15:12:22.831Z,4.5
2023-03-12T15:13:37.063Z,4.5
2023-03-12T15:14:51.287Z,3.7
2023-03-12T15:16:05.515Z,3.6
2023-03-12T15:17:19.814Z,4.5
2023-03-12T15:18:34.055Z,4
2023-03-12T15:19:48.282Z,4.4
2023-03-12T15:21:02.511Z,4.5
2023-03-12T15:22:16.747Z,3.7
2023-03-12T15:24:45.271Z,4.2
2023-03-12T15:25:59.635Z,4
2023-03-12T15:27:13.865Z,3.9
2023-03-12T15:28:28.091Z,4.2
2023-03-12T15:29:42.381Z,3.9
2023-03-12T15:30:56.617Z,3.8
2023-03-12T15:32:10.852Z,4
2023-03-12T15:33:25.073Z,3.6
2023-03-12T15:34:39.308Z,3.7
2023-03-12T15:35:53.613Z,4
2023-03-12T15:37:07.854Z,3.9
2023-03-12T15:38:22.211Z,4.3
2023-03-12T15:39:36.451Z,4
2023-03-12T15:40:50.793Z,4.2
2023-03-12T15:42:05.089Z,3.6
2023-03-12T15:43:19.342Z,3.8
2023-03-12T15:44:33.567Z,3.9
2023-03-12T15:45:47.783Z,4
2023-03-12T15:47:02.023Z,4.2
2023-03-12T15:48:16.320Z,3.8
2023-03-12T15:49:30.561Z,3.6
2023-03-12T15:50:44.775Z,3.8
2023-03-12T15:51:59.014Z,3.2
2023-03-12T15:53:13.376Z,4.1
2023-03-12T15:54:27.684Z,4
2023-03-12T15:55:41.918Z,3.5
2023-03-12T15:56:56.156Z,4.1
2023-03-12T15:58:10.373Z,3.1
2023-03-12T15:59:24.607Z,3.2
2023-03-12T16:00:38.909Z,2.7
2023-03-12T16:01:53.143Z,3.1
2023-03-12T16:03:07.375Z,3.4
2023-03-12T16:04:21.588Z,3.1
2023-03-12T16:05:35.820Z,4
2023-03-12T16:06:50.124Z,3.1
2023-03-12T16:08:04.353Z,3.7
2023-03-12T16:09:18.594Z,2.7
2023-03-12T16:10:32.816Z,4
2023-03-12T16:11:47.031Z,2.8
2023-03-12T16:13:01.340Z,3.1
2023-03-12T16:14:15.590Z,3.8
2023-03-12T16:15:29.945Z,2.8
2023-03-12T16:16:44.188Z,3
2023-03-12T16:17:58.535Z,2.6
2023-03-12T16:19:12.000Z,2.8
2023-03-12T16:20:27.072Z,3
2023-03-12T16:21:41.300Z,2.5
2023-03-12T16:22:55.516Z,3.2
2023-03-12T16:24:09.751Z,2.8
2023-03-12T16:25:24.050Z,3.3
2023-03-12T16:27:52.521Z,2.4
2023-03-12T16:29:06.739Z,2.8
2023-03-12T16:30:20.974Z,2.4
2023-03-12T16:31:35.266Z,2.4
2023-03-12T16:32:49.504Z,2.4
2023-03-12T16:34:03.734Z,2.3
2023-03-12T16:35:17.955Z,2.6
2023-03-12T16:36:32.184Z,2
2023-03-12T16:39:00.741Z,2
2023-03-12T16:40:15.099Z,2.2
2023-03-12T16:42:43.557Z,2.6
2023-03-12T16:43:57.852Z,1.8
2023-03-12T16:46:26.326Z,1.9
2023-03-12T16:47:40.556Z,2.4
2023-03-12T16:48:54.777Z,1.8
2023-03-12T16:50:09.081Z,1.9
2023-03-12T16:51:23.318Z,1.9
2023-03-12T16:52:37.661Z,2.1
2023-03-12T16:53:51.892Z,1.8
2023-03-12T16:55:06.130Z,2.7
2023-03-12T16:56:20.417Z,2
2023-03-12T16:57:34.666Z,1.7
2023-03-12T16:58:48.885Z,1.7
2023-03-12T17:00:03.112Z,2.3
2023-03-12T17:01:17.343Z,2.3
2023-03-12T17:02:31.635Z,2.3
2023-03-12T17:03:45.889Z,1.8
2023-03-12T17:05:00.107Z,1.9
2023-03-12T17:06:14.344Z,1.6
2023-03-12T17:07:28.560Z,2.4
2023-03-12T17:08:42.860Z,2
2023-03-12T17:09:57.113Z,2.2
2023-03-12T17:11:11.340Z,2.2
2023-03-12T17:12:25.551Z,2
2023-03-12T17:13:39.778Z,2
2023-03-12T17:14:54.092Z,2.2
2023-03-12T17:16:08.318Z,2.1
2023-03-12T17:17:22.557Z,2.6
2023-03-12T17:18:36.767Z,2.7
2023-03-12T17:19:51.003Z,2.6
2023-03-12T17:21:05.296Z,2.3
2023-03-12T17:22:19.553Z,2.2
2023-03-12T17:23:33.770Z,2.3
2023-03-12T17:24:47.988Z,1.9
2023-03-12T17:27:16.521Z,1.4
2023-03-12T17:28:30.765Z,2.6
2023-03-12T17:29:45.126Z,2.4
2023-03-12T17:30:59.351Z,2.9
2023-03-12T17:32:13.700Z,2.4
2023-03-12T17:33:28.001Z,2.3
2023-03-12T17:34:42.256Z,1.6
2023-03-12T17:35:56.479Z,2.2
2023-03-12T17:37:10.702Z,1.9
2023-03-12T17:38:24.923Z,2.9
2023-03-12T17:39:39.234Z,2.8
2023-03-12T17:40:53.466Z,2.5
2023-03-12T17:42:07.690Z,2.4
2023-03-12T17:43:21.912Z,2.9
2023-03-12T17:44:36.290Z,2.8
2023-03-12T17:45:50.638Z,2.2
2023-03-12T17:47:04.968Z,2.8
2023-03-12T17:48:19.195Z,2.2
2023-03-12T17:49:33.434Z,2.4
2023-03-12T17:50:47.642Z,2.6
2023-03-12T17:52:01.940Z,2.3
2023-03-12T17:54:30.425Z,2.3
2023-03-12T17:55:44.642Z,2.1
2023-03-12T17:56:58.999Z,2.2
2023-03-12T17:58:13.352Z,2.6
2023-03-12T17:59:27.672Z,2.4
2023-03-12T18:00:41.955Z,2.3
2023-03-12T18:01:56.230Z,2.2
2023-03-12T18:03:10.630Z,2.4
2023-03-12T18:04:24.966Z,2.9
2023-03-12T18:05:39.239Z,2.5
2023-03-12T18:06:53.531Z,3.1
2023-03-12T18:08:07.919Z,2.1
2023-03-12T18:09:22.246Z,2.9
2023-03-12T18:10:36.525Z,2.3
2023-03-12T18:11:50.806Z,2.4
2023-03-12T18:13:05.212Z,2.2
2023-03-12T18:14:19.544Z,2.3
2023-03-12T18:15:33.816Z,2.7
2023-03-12T18:16:48.252Z,2.3
2023-03-12T18:18:02.661Z,2.5